sensor_id;sensor_type;location;lat;lon;timestamp;P1;durP1;ratioP1;P2;durP2;ratioP2
2650;SDS011;1335;48.180;16.342;2022-08-01T00:02:02;4.30;;;3.97;;
2650;SDS011;1335;48.180;16.342;2022-08-01T00:04:29;3.67;;;3.47;;
2650;SDS011;1335;48.180;16.342;2022-08-01T00:06:56;4.03;;;3.83;;
2650;SDS011;1335;48.180;16.342;2022-08-01T00:09:23;4.10;;;3.67;;
2650;SDS011;1335;48.180;16.342;2022-08-01T00:11:50;4.23;;;3.83;;
2650;SDS011;1335;48.180;16.342;2022-08-01T00:14:17;3.70;;;3.50;;
2650;SDS011;1335;48.180;16.342;2022-08-01T00:16:44;4.03;;;3.73;;
2650;SDS011;1335;48.180;16.342;2022-08-01T00:19:13;8.00;;;3.87;;
2650;SDS011;1335;48.180;16.342;2022-08-01T00:21:40;4.87;;;4.37;;
2650;SDS011;1335;48.180;16.342;2022-08-01T00:24:07;4.60;;;4.30;;
2650;SDS011;1335;48.180;16.342;2022-08-01T00:26:35;4.67;;;4.37;;
2650;SDS011;1335;48.180;16.342;2022-08-01T00:29:02;3.50;;;3.30;;
2650;SDS011;1335;48.180;16.342;2022-08-01T00:31:29;4.90;;;4.13;;
2650;SDS011;1335;48.180;16.342;2022-08-01T00:33:56;5.00;;;4.60;;
2650;SDS011;1335;48.180;16.342;2022-08-01T00:36:24;4.80;;;4.40;;
2650;SDS011;1335;48.180;16.342;2022-08-01T00:38:51;3.80;;;3.60;;
2650;SDS011;1335;48.180;16.342;2022-08-01T00:41:19;4.40;;;4.10;;
2650;SDS011;1335;48.180;16.342;2022-08-01T00:43:46;4.20;;;3.80;;
2650;SDS011;1335;48.180;16.342;2022-08-01T00:46:13;4.47;;;4.10;;
2650;SDS011;1335;48.180;16.342;2022-08-01T00:48:40;5.43;;;3.87;;
2650;SDS011;1335;48.180;16.342;2022-08-01T00:51:07;4.10;;;3.80;;
2650;SDS011;1335;48.180;16.342;2022-08-01T00:53:36;4.43;;;4.03;;
2650;SDS011;1335;48.180;16.342;2022-08-01T00:56:03;4.20;;;3.90;;
2650;SDS011;1335;48.180;16.342;2022-08-01T00:58:31;4.63;;;4.33;;
2650;SDS011;1335;48.180;16.342;2022-08-01T01:00:59;4.17;;;3.87;;
2650;SDS011;1335;48.180;16.342;2022-08-01T01:03:27;4.87;;;4.30;;
2650;SDS011;1335;48.180;16.342;2022-08-01T01:05:56;3.57;;;3.30;;
2650;SDS011;1335;48.180;16.342;2022-08-01T01:08:37;4.67;;;4.10;;
2650;SDS011;1335;48.180;16.342;2022-08-01T01:11:10;9.60;;;3.67;;
2650;SDS011;1335;48.180;16.342;2022-08-01T01:13:43;4.13;;;3.83;;
2650;SDS011;1335;48.180;16.342;2022-08-01T01:16:17;3.77;;;3.50;;
2650;SDS011;1335;48.180;16.342;2022-08-01T01:18:46;4.07;;;3.77;;
2650;SDS011;1335;48.180;16.342;2022-08-01T01:21:33;4.33;;;3.93;;
2650;SDS011;1335;48.180;16.342;2022-08-01T01:24:10;4.40;;;4.20;;
2650;SDS011;1335;48.180;16.342;2022-08-01T01:26:49;4.47;;;4.07;;
2650;SDS011;1335;48.180;16.342;2022-08-01T01:29:23;4.63;;;4.00;;
2650;SDS011;1335;48.180;16.342;2022-08-01T01:31:55;5.07;;;4.67;;
2650;SDS011;1335;48.180;16.342;2022-08-01T01:34:26;4.33;;;4.03;;
2650;SDS011;1335;48.180;16.342;2022-08-01T01:36:55;4.20;;;3.90;;
2650;SDS011;1335;48.180;16.342;2022-08-01T01:39:24;4.23;;;3.93;;
2650;SDS011;1335;48.180;16.342;2022-08-01T01:41:53;3.90;;;3.60;;
2650;SDS011;1335;48.180;16.342;2022-08-01T01:44:22;5.67;;;4.30;;
2650;SDS011;1335;48.180;16.342;2022-08-01T01:46:51;4.20;;;3.90;;
2650;SDS011;1335;48.180;16.342;2022-08-01T01:49:20;4.80;;;4.27;;
2650;SDS011;1335;48.180;16.342;2022-08-01T01:51:50;4.90;;;4.20;;
2650;SDS011;1335;48.180;16.342;2022-08-01T01:54:19;4.07;;;3.73;;
2650;SDS011;1335;48.180;16.342;2022-08-01T01:56:48;4.57;;;4.23;;
2650;SDS011;1335;48.180;16.342;2022-08-01T01:59:18;4.63;;;4.27;;
2650;SDS011;1335;48.180;16.342;2022-08-01T02:01:49;4.13;;;3.93;;
2650;SDS011;1335;48.180;16.342;2022-08-01T02:04:19;4.67;;;4.27;;
2650;SDS011;1335;48.180;16.342;2022-08-01T02:06:48;4.17;;;3.97;;
2650;SDS011;1335;48.180;16.342;2022-08-01T02:09:18;4.47;;;4.20;;
2650;SDS011;1335;48.180;16.342;2022-08-01T02:11:47;3.97;;;3.77;;
2650;SDS011;1335;48.180;16.342;2022-08-01T02:14:15;4.10;;;3.90;;
2650;SDS011;1335;48.180;16.342;2022-08-01T02:16:45;3.87;;;3.57;;
2650;SDS011;1335;48.180;16.342;2022-08-01T02:19:17;4.03;;;3.73;;
2650;SDS011;1335;48.180;16.342;2022-08-01T02:21:46;3.67;;;3.40;;
2650;SDS011;1335;48.180;16.342;2022-08-01T02:24:19;3.47;;;3.17;;
2650;SDS011;1335;48.180;16.342;2022-08-01T02:26:51;3.57;;;3.37;;
2650;SDS011;1335;48.180;16.342;2022-08-01T02:29:22;4.97;;;3.80;;
2650;SDS011;1335;48.180;16.342;2022-08-01T02:31:55;3.60;;;3.40;;
2650;SDS011;1335;48.180;16.342;2022-08-01T02:34:22;3.63;;;3.40;;
2650;SDS011;1335;48.180;16.342;2022-08-01T02:36:51;7.00;;;3.90;;
2650;SDS011;1335;48.180;16.342;2022-08-01T02:39:22;4.10;;;3.60;;
2650;SDS011;1335;48.180;16.342;2022-08-01T02:41:55;3.93;;;3.63;;
2650;SDS011;1335;48.180;16.342;2022-08-01T02:44:27;4.10;;;3.70;;
2650;SDS011;1335;48.180;16.342;2022-08-01T02:47:00;4.20;;;3.90;;
2650;SDS011;1335;48.180;16.342;2022-08-01T02:49:29;3.77;;;3.47;;
2650;SDS011;1335;48.180;16.342;2022-08-01T02:51:59;3.53;;;3.30;;
2650;SDS011;1335;48.180;16.342;2022-08-01T02:54:27;4.37;;;3.97;;
2650;SDS011;1335;48.180;16.342;2022-08-01T02:56:57;4.77;;;4.30;;
2650;SDS011;1335;48.180;16.342;2022-08-01T02:59:26;4.20;;;3.80;;
2650;SDS011;1335;48.180;16.342;2022-08-01T03:01:56;4.93;;;4.17;;
2650;SDS011;1335;48.180;16.342;2022-08-01T03:04:26;4.20;;;3.90;;
2650;SDS011;1335;48.180;16.342;2022-08-01T03:06:54;4.60;;;4.07;;
2650;SDS011;1335;48.180;16.342;2022-08-01T03:09:23;4.07;;;3.63;;
2650;SDS011;1335;48.180;16.342;2022-08-01T03:11:52;4.57;;;3.80;;
2650;SDS011;1335;48.180;16.342;2022-08-01T03:14:22;4.03;;;3.67;;
2650;SDS011;1335;48.180;16.342;2022-08-01T03:16:51;3.87;;;3.60;;
2650;SDS011;1335;48.180;16.342;2022-08-01T03:19:22;3.70;;;3.50;;
2650;SDS011;1335;48.180;16.342;2022-08-01T03:21:54;3.50;;;3.20;;
2650;SDS011;1335;48.180;16.342;2022-08-01T03:24:23;3.93;;;3.63;;
2650;SDS011;1335;48.180;16.342;2022-08-01T03:26:52;4.10;;;3.80;;
2650;SDS011;1335;48.180;16.342;2022-08-01T03:29:24;4.53;;;4.20;;
2650;SDS011;1335;48.180;16.342;2022-08-01T03:31:52;5.70;;;4.27;;
2650;SDS011;1335;48.180;16.342;2022-08-01T03:34:20;5.53;;;4.67;;
2650;SDS011;1335;48.180;16.342;2022-08-01T03:36:48;7.40;;;4.23;;
2650;SDS011;1335;48.180;16.342;2022-08-01T03:39:25;6.90;;;3.83;;
2650;SDS011;1335;48.180;16.342;2022-08-01T03:41:55;4.00;;;3.80;;
2650;SDS011;1335;48.180;16.342;2022-08-01T03:44:33;8.97;;;5.10;;
2650;SDS011;1335;48.180;16.342;2022-08-01T03:47:05;6.03;;;4.90;;
2650;SDS011;1335;48.180;16.342;2022-08-01T03:49:35;6.80;;;5.00;;
2650;SDS011;1335;48.180;16.342;2022-08-01T03:52:10;9.90;;;8.03;;
2650;SDS011;1335;48.180;16.342;2022-08-01T03:54:41;5.13;;;4.73;;
2650;SDS011;1335;48.180;16.342;2022-08-01T03:57:12;5.07;;;4.67;;
2650;SDS011;1335;48.180;16.342;2022-08-01T03:59:40;4.47;;;3.90;;
2650;SDS011;1335;48.180;16.342;2022-08-01T04:02:08;3.47;;;3.27;;
2650;SDS011;1335;48.180;16.342;2022-08-01T04:04:35;4.60;;;4.10;;
2650;SDS011;1335;48.180;16.342;2022-08-01T04:07:03;4.67;;;4.27;;
2650;SDS011;1335;48.180;16.342;2022-08-01T04:09:32;4.27;;;3.80;;
2650;SDS011;1335;48.180;16.342;2022-08-01T04:12:01;4.97;;;4.10;;
2650;SDS011;1335;48.180;16.342;2022-08-01T04:14:28;3.40;;;3.17;;
2650;SDS011;1335;48.180;16.342;2022-08-01T04:16:55;3.97;;;3.67;;
2650;SDS011;1335;48.180;16.342;2022-08-01T04:19:22;4.10;;;3.80;;
2650;SDS011;1335;48.180;16.342;2022-08-01T04:21:51;3.87;;;3.57;;
2650;SDS011;1335;48.180;16.342;2022-08-01T04:24:18;5.27;;;4.10;;
2650;SDS011;1335;48.180;16.342;2022-08-01T04:26:48;3.50;;;3.30;;
2650;SDS011;1335;48.180;16.342;2022-08-01T04:29:19;3.70;;;3.40;;
2650;SDS011;1335;48.180;16.342;2022-08-01T04:31:48;3.40;;;3.20;;
2650;SDS011;1335;48.180;16.342;2022-08-01T04:34:17;5.37;;;3.40;;
2650;SDS011;1335;48.180;16.342;2022-08-01T04:36:47;3.47;;;3.27;;
2650;SDS011;1335;48.180;16.342;2022-08-01T04:39:16;7.13;;;3.50;;
2650;SDS011;1335;48.180;16.342;2022-08-01T04:41:45;4.97;;;3.43;;
2650;SDS011;1335;48.180;16.342;2022-08-01T04:44:13;3.40;;;3.20;;
2650;SDS011;1335;48.180;16.342;2022-08-01T04:46:43;4.53;;;4.00;;
2650;SDS011;1335;48.180;16.342;2022-08-01T04:49:13;7.53;;;3.97;;
2650;SDS011;1335;48.180;16.342;2022-08-01T04:51:49;4.50;;;3.70;;
2650;SDS011;1335;48.180;16.342;2022-08-01T04:54:20;4.47;;;3.70;;
2650;SDS011;1335;48.180;16.342;2022-08-01T04:56:58;12.70;;;3.93;;
2650;SDS011;1335;48.180;16.342;2022-08-01T04:59:26;6.37;;;3.60;;
2650;SDS011;1335;48.180;16.342;2022-08-01T05:02:10;3.90;;;3.60;;
2650;SDS011;1335;48.180;16.342;2022-08-01T05:04:39;3.47;;;3.17;;
2650;SDS011;1335;48.180;16.342;2022-08-01T05:07:07;3.00;;;2.80;;
2650;SDS011;1335;48.180;16.342;2022-08-01T05:09:34;3.80;;;3.10;;
2650;SDS011;1335;48.180;16.342;2022-08-01T05:12:03;3.80;;;2.83;;
2650;SDS011;1335;48.180;16.342;2022-08-01T05:14:32;3.67;;;3.27;;
2650;SDS011;1335;48.180;16.342;2022-08-01T05:16:59;2.90;;;2.70;;
2650;SDS011;1335;48.180;16.342;2022-08-01T05:19:29;3.50;;;3.20;;
2650;SDS011;1335;48.180;16.342;2022-08-01T05:21:58;3.73;;;2.93;;
2650;SDS011;1335;48.180;16.342;2022-08-01T05:24:25;4.10;;;2.90;;
2650;SDS011;1335;48.180;16.342;2022-08-01T05:26:54;3.07;;;2.87;;
2650;SDS011;1335;48.180;16.342;2022-08-01T05:29:21;6.30;;;3.50;;
2650;SDS011;1335;48.180;16.342;2022-08-01T05:31:49;3.17;;;2.87;;
2650;SDS011;1335;48.180;16.342;2022-08-01T05:34:16;4.20;;;2.87;;
2650;SDS011;1335;48.180;16.342;2022-08-01T05:36:45;4.60;;;3.30;;
2650;SDS011;1335;48.180;16.342;2022-08-01T05:39:12;3.73;;;3.43;;
2650;SDS011;1335;48.180;16.342;2022-08-01T05:41:40;5.37;;;3.00;;
2650;SDS011;1335;48.180;16.342;2022-08-01T05:44:07;3.40;;;2.87;;
2650;SDS011;1335;48.180;16.342;2022-08-01T05:46:35;6.00;;;2.90;;
2650;SDS011;1335;48.180;16.342;2022-08-01T05:49:03;2.93;;;2.73;;
2650;SDS011;1335;48.180;16.342;2022-08-01T05:51:31;3.10;;;2.90;;
2650;SDS011;1335;48.180;16.342;2022-08-01T05:54:00;3.03;;;2.83;;
2650;SDS011;1335;48.180;16.342;2022-08-01T05:56:27;3.60;;;2.80;;
2650;SDS011;1335;48.180;16.342;2022-08-01T05:58:54;3.07;;;2.53;;
2650;SDS011;1335;48.180;16.342;2022-08-01T06:01:21;3.20;;;2.90;;
2650;SDS011;1335;48.180;16.342;2022-08-01T06:03:48;3.70;;;2.83;;
2650;SDS011;1335;48.180;16.342;2022-08-01T06:06:15;3.43;;;3.07;;
2650;SDS011;1335;48.180;16.342;2022-08-01T06:08:42;3.93;;;3.13;;
2650;SDS011;1335;48.180;16.342;2022-08-01T06:11:11;3.20;;;2.97;;
2650;SDS011;1335;48.180;16.342;2022-08-01T06:13:38;4.27;;;2.80;;
2650;SDS011;1335;48.180;16.342;2022-08-01T06:16:05;5.60;;;3.30;;
2650;SDS011;1335;48.180;16.342;2022-08-01T06:18:32;3.90;;;2.80;;
2650;SDS011;1335;48.180;16.342;2022-08-01T06:20:59;2.60;;;2.40;;
2650;SDS011;1335;48.180;16.342;2022-08-01T06:23:26;3.47;;;3.27;;
2650;SDS011;1335;48.180;16.342;2022-08-01T06:25:54;2.70;;;2.50;;
2650;SDS011;1335;48.180;16.342;2022-08-01T06:28:22;4.33;;;3.40;;
2650;SDS011;1335;48.180;16.342;2022-08-01T06:30:49;7.50;;;2.83;;
2650;SDS011;1335;48.180;16.342;2022-08-01T06:33:16;4.00;;;3.00;;
2650;SDS011;1335;48.180;16.342;2022-08-01T06:35:43;3.43;;;2.80;;
2650;SDS011;1335;48.180;16.342;2022-08-01T06:38:11;10.37;;;3.77;;
2650;SDS011;1335;48.180;16.342;2022-08-01T06:40:38;4.30;;;3.33;;
2650;SDS011;1335;48.180;16.342;2022-08-01T06:43:05;6.03;;;2.70;;
2650;SDS011;1335;48.180;16.342;2022-08-01T06:45:34;3.57;;;3.27;;
2650;SDS011;1335;48.180;16.342;2022-08-01T06:48:01;3.97;;;2.80;;
2650;SDS011;1335;48.180;16.342;2022-08-01T06:50:30;2.83;;;2.63;;
2650;SDS011;1335;48.180;16.342;2022-08-01T06:52:57;5.40;;;2.63;;
2650;SDS011;1335;48.180;16.342;2022-08-01T06:55:24;3.10;;;2.40;;
2650;SDS011;1335;48.180;16.342;2022-08-01T06:57:52;3.77;;;2.90;;
2650;SDS011;1335;48.180;16.342;2022-08-01T07:00:19;7.50;;;2.90;;
2650;SDS011;1335;48.180;16.342;2022-08-01T07:02:50;2.53;;;2.33;;
2650;SDS011;1335;48.180;16.342;2022-08-01T07:05:18;2.40;;;2.20;;
2650;SDS011;1335;48.180;16.342;2022-08-01T07:07:45;2.40;;;2.20;;
2650;SDS011;1335;48.180;16.342;2022-08-01T07:10:12;2.73;;;2.50;;
2650;SDS011;1335;48.180;16.342;2022-08-01T07:12:39;3.03;;;2.60;;
2650;SDS011;1335;48.180;16.342;2022-08-01T07:15:06;2.53;;;2.30;;
2650;SDS011;1335;48.180;16.342;2022-08-01T07:17:36;2.87;;;2.00;;
2650;SDS011;1335;48.180;16.342;2022-08-01T07:20:08;2.33;;;2.23;;
2650;SDS011;1335;48.180;16.342;2022-08-01T07:22:36;2.40;;;2.20;;
2650;SDS011;1335;48.180;16.342;2022-08-01T07:25:05;3.33;;;2.20;;
2650;SDS011;1335;48.180;16.342;2022-08-01T07:27:33;3.10;;;2.40;;
2650;SDS011;1335;48.180;16.342;2022-08-01T07:30:02;2.53;;;2.27;;
2650;SDS011;1335;48.180;16.342;2022-08-01T07:32:30;3.77;;;2.27;;
2650;SDS011;1335;48.180;16.342;2022-08-01T07:34:58;3.27;;;2.00;;
2650;SDS011;1335;48.180;16.342;2022-08-01T07:37:27;4.03;;;2.43;;
2650;SDS011;1335;48.180;16.342;2022-08-01T07:39:55;4.43;;;2.40;;
2650;SDS011;1335;48.180;16.342;2022-08-01T07:42:23;2.60;;;2.40;;
2650;SDS011;1335;48.180;16.342;2022-08-01T07:44:51;3.00;;;2.13;;
2650;SDS011;1335;48.180;16.342;2022-08-01T07:47:23;3.73;;;2.50;;
2650;SDS011;1335;48.180;16.342;2022-08-01T07:49:50;3.90;;;2.40;;
2650;SDS011;1335;48.180;16.342;2022-08-01T07:52:18;3.47;;;2.30;;
2650;SDS011;1335;48.180;16.342;2022-08-01T07:54:47;6.13;;;3.20;;
2650;SDS011;1335;48.180;16.342;2022-08-01T07:57:14;5.53;;;2.00;;
2650;SDS011;1335;48.180;16.342;2022-08-01T07:59:41;4.73;;;2.80;;
2650;SDS011;1335;48.180;16.342;2022-08-01T08:02:09;2.63;;;2.37;;
2650;SDS011;1335;48.180;16.342;2022-08-01T08:04:36;2.90;;;2.70;;
2650;SDS011;1335;48.180;16.342;2022-08-01T08:07:03;3.90;;;2.50;;
2650;SDS011;1335;48.180;16.342;2022-08-01T08:09:30;3.70;;;2.50;;
2650;SDS011;1335;48.180;16.342;2022-08-01T08:12:00;3.00;;;2.27;;
2650;SDS011;1335;48.180;16.342;2022-08-01T08:14:27;2.60;;;2.30;;
2650;SDS011;1335;48.180;16.342;2022-08-01T08:16:54;3.73;;;2.83;;
2650;SDS011;1335;48.180;16.342;2022-08-01T08:19:21;3.67;;;2.67;;
2650;SDS011;1335;48.180;16.342;2022-08-01T08:21:48;2.60;;;2.40;;
2650;SDS011;1335;48.180;16.342;2022-08-01T08:24:16;2.60;;;2.30;;
2650;SDS011;1335;48.180;16.342;2022-08-01T08:26:46;2.87;;;2.30;;
2650;SDS011;1335;48.180;16.342;2022-08-01T08:29:16;6.90;;;3.20;;
2650;SDS011;1335;48.180;16.342;2022-08-01T08:31:44;4.20;;;2.50;;
2650;SDS011;1335;48.180;16.342;2022-08-01T08:34:11;5.10;;;2.57;;
2650;SDS011;1335;48.180;16.342;2022-08-01T08:36:39;2.80;;;2.60;;
2650;SDS011;1335;48.180;16.342;2022-08-01T08:39:06;3.77;;;2.10;;
2650;SDS011;1335;48.180;16.342;2022-08-01T08:41:34;2.80;;;2.03;;
2650;SDS011;1335;48.180;16.342;2022-08-01T08:44:03;2.30;;;2.10;;
2650;SDS011;1335;48.180;16.342;2022-08-01T08:46:32;2.10;;;2.00;;
2650;SDS011;1335;48.180;16.342;2022-08-01T08:49:07;3.00;;;2.17;;
2650;SDS011;1335;48.180;16.342;2022-08-01T08:51:37;1.97;;;1.77;;
2650;SDS011;1335;48.180;16.342;2022-08-01T08:54:08;2.70;;;2.10;;
2650;SDS011;1335;48.180;16.342;2022-08-01T08:56:41;2.03;;;1.93;;
2650;SDS011;1335;48.180;16.342;2022-08-01T08:59:11;2.77;;;2.47;;
2650;SDS011;1335;48.180;16.342;2022-08-01T09:01:41;2.70;;;2.50;;
2650;SDS011;1335;48.180;16.342;2022-08-01T09:04:09;2.23;;;2.13;;
2650;SDS011;1335;48.180;16.342;2022-08-01T09:06:37;2.93;;;2.50;;
2650;SDS011;1335;48.180;16.342;2022-08-01T09:09:05;2.73;;;2.53;;
2650;SDS011;1335;48.180;16.342;2022-08-01T09:11:34;2.37;;;2.20;;
2650;SDS011;1335;48.180;16.342;2022-08-01T09:14:07;2.37;;;2.13;;
2650;SDS011;1335;48.180;16.342;2022-08-01T09:16:36;2.73;;;2.40;;
2650;SDS011;1335;48.180;16.342;2022-08-01T09:19:08;2.57;;;2.27;;
2650;SDS011;1335;48.180;16.342;2022-08-01T09:21:38;2.13;;;2.03;;
2650;SDS011;1335;48.180;16.342;2022-08-01T09:24:21;3.87;;;2.90;;
2650;SDS011;1335;48.180;16.342;2022-08-01T09:26:48;2.50;;;2.40;;
2650;SDS011;1335;48.180;16.342;2022-08-01T09:29:19;3.53;;;2.77;;
2650;SDS011;1335;48.180;16.342;2022-08-01T09:31:51;3.07;;;2.30;;
2650;SDS011;1335;48.180;16.342;2022-08-01T09:34:32;7.77;;;3.10;;
2650;SDS011;1335;48.180;16.342;2022-08-01T09:37:00;3.40;;;2.50;;
2650;SDS011;1335;48.180;16.342;2022-08-01T09:39:31;3.23;;;3.00;;
2650;SDS011;1335;48.180;16.342;2022-08-01T09:42:02;3.30;;;2.57;;
2650;SDS011;1335;48.180;16.342;2022-08-01T09:44:46;3.10;;;2.90;;
2650;SDS011;1335;48.180;16.342;2022-08-01T09:47:13;2.30;;;2.20;;
2650;SDS011;1335;48.180;16.342;2022-08-01T09:49:43;10.43;;;3.30;;
2650;SDS011;1335;48.180;16.342;2022-08-01T09:52:12;5.63;;;2.77;;
2650;SDS011;1335;48.180;16.342;2022-08-01T09:54:41;4.30;;;3.00;;
2650;SDS011;1335;48.180;16.342;2022-08-01T09:57:10;6.87;;;3.10;;
2650;SDS011;1335;48.180;16.342;2022-08-01T09:59:42;5.00;;;2.80;;
2650;SDS011;1335;48.180;16.342;2022-08-01T10:02:11;2.93;;;2.73;;
2650;SDS011;1335;48.180;16.342;2022-08-01T10:04:48;4.33;;;3.20;;
2650;SDS011;1335;48.180;16.342;2022-08-01T10:07:17;2.67;;;2.57;;
2650;SDS011;1335;48.180;16.342;2022-08-01T10:09:44;3.20;;;3.00;;
2650;SDS011;1335;48.180;16.342;2022-08-01T10:12:14;3.17;;;2.70;;
2650;SDS011;1335;48.180;16.342;2022-08-01T10:14:43;2.87;;;2.67;;
2650;SDS011;1335;48.180;16.342;2022-08-01T10:17:15;3.50;;;3.20;;
2650;SDS011;1335;48.180;16.342;2022-08-01T10:19:43;3.77;;;3.10;;
2650;SDS011;1335;48.180;16.342;2022-08-01T10:22:13;3.20;;;2.90;;
2650;SDS011;1335;48.180;16.342;2022-08-01T10:24:42;2.83;;;2.40;;
2650;SDS011;1335;48.180;16.342;2022-08-01T10:27:11;3.40;;;3.20;;
2650;SDS011;1335;48.180;16.342;2022-08-01T10:29:42;3.00;;;2.80;;
2650;SDS011;1335;48.180;16.342;2022-08-01T10:32:14;4.60;;;3.60;;
2650;SDS011;1335;48.180;16.342;2022-08-01T10:34:43;3.67;;;3.37;;
2650;SDS011;1335;48.180;16.342;2022-08-01T10:37:13;3.10;;;2.90;;
2650;SDS011;1335;48.180;16.342;2022-08-01T10:39:42;3.07;;;2.87;;
2650;SDS011;1335;48.180;16.342;2022-08-01T10:42:09;2.33;;;2.20;;
2650;SDS011;1335;48.180;16.342;2022-08-01T10:44:40;2.57;;;2.43;;
2650;SDS011;1335;48.180;16.342;2022-08-01T10:47:11;3.70;;;2.47;;
2650;SDS011;1335;48.180;16.342;2022-08-01T10:49:43;2.20;;;2.00;;
2650;SDS011;1335;48.180;16.342;2022-08-01T10:52:19;3.70;;;3.50;;
2650;SDS011;1335;48.180;16.342;2022-08-01T10:54:46;2.40;;;2.30;;
2650;SDS011;1335;48.180;16.342;2022-08-01T10:57:14;5.97;;;2.60;;
2650;SDS011;1335;48.180;16.342;2022-08-01T10:59:49;4.40;;;2.90;;
2650;SDS011;1335;48.180;16.342;2022-08-01T11:02:25;3.00;;;2.70;;
2650;SDS011;1335;48.180;16.342;2022-08-01T11:04:55;2.57;;;2.37;;
2650;SDS011;1335;48.180;16.342;2022-08-01T11:07:35;3.90;;;2.60;;
2650;SDS011;1335;48.180;16.342;2022-08-01T11:10:15;2.90;;;2.67;;
2650;SDS011;1335;48.180;16.342;2022-08-01T11:12:48;3.93;;;2.70;;
2650;SDS011;1335;48.180;16.342;2022-08-01T11:15:17;3.40;;;3.20;;
2650;SDS011;1335;48.180;16.342;2022-08-01T11:17:51;3.57;;;3.27;;
2650;SDS011;1335;48.180;16.342;2022-08-01T11:20:19;4.90;;;2.47;;
2650;SDS011;1335;48.180;16.342;2022-08-01T11:28:43;2.60;;;2.47;;
2650;SDS011;1335;48.180;16.342;2022-08-01T11:31:30;4.93;;;2.70;;
2650;SDS011;1335;48.180;16.342;2022-08-01T11:33:59;3.00;;;2.70;;
2650;SDS011;1335;48.180;16.342;2022-08-01T11:36:26;2.27;;;2.17;;
2650;SDS011;1335;48.180;16.342;2022-08-01T11:41:41;2.70;;;2.50;;
2650;SDS011;1335;48.180;16.342;2022-08-01T11:44:10;2.60;;;2.37;;
2650;SDS011;1335;48.180;16.342;2022-08-01T11:46:44;3.50;;;2.80;;
2650;SDS011;1335;48.180;16.342;2022-08-01T11:49:23;2.90;;;2.67;;
2650;SDS011;1335;48.180;16.342;2022-08-01T11:52:02;3.67;;;3.37;;
2650;SDS011;1335;48.180;16.342;2022-08-01T11:54:32;3.90;;;3.50;;
2650;SDS011;1335;48.180;16.342;2022-08-01T11:57:04;4.10;;;2.67;;
2650;SDS011;1335;48.180;16.342;2022-08-01T11:59:36;2.87;;;2.70;;
2650;SDS011;1335;48.180;16.342;2022-08-01T12:02:18;3.10;;;2.60;;
2650;SDS011;1335;48.180;16.342;2022-08-01T12:04:48;3.33;;;2.60;;
2650;SDS011;1335;48.180;16.342;2022-08-01T12:07:20;6.20;;;2.90;;
2650;SDS011;1335;48.180;16.342;2022-08-01T12:09:56;6.13;;;3.30;;
2650;SDS011;1335;48.180;16.342;2022-08-01T12:12:31;3.00;;;2.70;;
2650;SDS011;1335;48.180;16.342;2022-08-01T12:15:00;3.77;;;3.00;;
2650;SDS011;1335;48.180;16.342;2022-08-01T12:17:29;4.30;;;3.10;;
2650;SDS011;1335;48.180;16.342;2022-08-01T12:19:59;3.73;;;2.40;;
2650;SDS011;1335;48.180;16.342;2022-08-01T12:22:27;5.13;;;3.07;;
2650;SDS011;1335;48.180;16.342;2022-08-01T12:24:58;3.43;;;2.60;;
2650;SDS011;1335;48.180;16.342;2022-08-01T12:27:41;6.00;;;3.07;;
2650;SDS011;1335;48.180;16.342;2022-08-01T12:30:11;5.17;;;2.60;;
2650;SDS011;1335;48.180;16.342;2022-08-01T12:32:40;3.27;;;2.90;;
2650;SDS011;1335;48.180;16.342;2022-08-01T12:35:10;7.03;;;2.50;;
2650;SDS011;1335;48.180;16.342;2022-08-01T12:37:40;2.60;;;2.40;;
2650;SDS011;1335;48.180;16.342;2022-08-01T12:40:09;4.77;;;2.03;;
2650;SDS011;1335;48.180;16.342;2022-08-01T12:42:40;5.13;;;2.50;;
2650;SDS011;1335;48.180;16.342;2022-08-01T12:45:08;1.83;;;1.67;;
2650;SDS011;1335;48.180;16.342;2022-08-01T12:47:37;3.03;;;1.60;;
2650;SDS011;1335;48.180;16.342;2022-08-01T12:50:06;1.43;;;1.10;;
2650;SDS011;1335;48.180;16.342;2022-08-01T12:52:37;1.60;;;1.50;;
2650;SDS011;1335;48.180;16.342;2022-08-01T12:55:09;2.47;;;1.53;;
2650;SDS011;1335;48.180;16.342;2022-08-01T12:57:39;2.20;;;2.00;;
2650;SDS011;1335;48.180;16.342;2022-08-01T13:00:13;2.53;;;2.17;;
2650;SDS011;1335;48.180;16.342;2022-08-01T13:02:43;2.47;;;2.30;;
2650;SDS011;1335;48.180;16.342;2022-08-01T13:05:12;3.50;;;2.57;;
2650;SDS011;1335;48.180;16.342;2022-08-01T13:07:42;3.20;;;2.00;;
2650;SDS011;1335;48.180;16.342;2022-08-01T13:10:13;5.93;;;2.00;;
2650;SDS011;1335;48.180;16.342;2022-08-01T13:12:59;4.13;;;2.30;;
2650;SDS011;1335;48.180;16.342;2022-08-01T13:15:52;3.17;;;2.27;;
2650;SDS011;1335;48.180;16.342;2022-08-01T13:18:31;5.60;;;2.60;;
2650;SDS011;1335;48.180;16.342;2022-08-01T13:21:10;2.57;;;2.47;;
2650;SDS011;1335;48.180;16.342;2022-08-01T13:23:39;2.43;;;2.23;;
2650;SDS011;1335;48.180;16.342;2022-08-01T13:26:07;2.77;;;2.57;;
2650;SDS011;1335;48.180;16.342;2022-08-01T13:28:35;3.23;;;2.50;;
2650;SDS011;1335;48.180;16.342;2022-08-01T13:31:06;3.03;;;2.67;;
2650;SDS011;1335;48.180;16.342;2022-08-01T13:33:43;4.70;;;2.70;;
2650;SDS011;1335;48.180;16.342;2022-08-01T13:36:25;3.00;;;2.60;;
2650;SDS011;1335;48.180;16.342;2022-08-01T13:38:57;3.00;;;2.10;;
2650;SDS011;1335;48.180;16.342;2022-08-01T13:41:43;2.30;;;2.20;;
2650;SDS011;1335;48.180;16.342;2022-08-01T13:44:11;2.67;;;2.50;;
2650;SDS011;1335;48.180;16.342;2022-08-01T13:46:43;2.13;;;1.93;;
2650;SDS011;1335;48.180;16.342;2022-08-01T13:49:13;1.93;;;1.53;;
2650;SDS011;1335;48.180;16.342;2022-08-01T13:51:43;3.37;;;2.23;;
2650;SDS011;1335;48.180;16.342;2022-08-01T13:54:11;4.57;;;1.93;;
2650;SDS011;1335;48.180;16.342;2022-08-01T13:56:38;3.07;;;1.60;;
2650;SDS011;1335;48.180;16.342;2022-08-01T13:59:16;3.10;;;1.80;;
2650;SDS011;1335;48.180;16.342;2022-08-01T14:01:46;3.83;;;2.13;;
2650;SDS011;1335;48.180;16.342;2022-08-01T14:04:18;1.30;;;1.20;;
2650;SDS011;1335;48.180;16.342;2022-08-01T14:06:47;1.50;;;1.50;;
2650;SDS011;1335;48.180;16.342;2022-08-01T14:09:25;1.83;;;1.73;;
2650;SDS011;1335;48.180;16.342;2022-08-01T14:11:52;3.27;;;1.77;;
2650;SDS011;1335;48.180;16.342;2022-08-01T14:14:20;1.43;;;1.33;;
2650;SDS011;1335;48.180;16.342;2022-08-01T14:16:52;2.07;;;1.30;;
2650;SDS011;1335;48.180;16.342;2022-08-01T14:19:19;1.53;;;1.43;;
2650;SDS011;1335;48.180;16.342;2022-08-01T14:21:47;1.67;;;1.57;;
2650;SDS011;1335;48.180;16.342;2022-08-01T14:24:18;1.70;;;1.47;;
2650;SDS011;1335;48.180;16.342;2022-08-01T14:26:46;1.80;;;1.33;;
2650;SDS011;1335;48.180;16.342;2022-08-01T14:29:14;1.70;;;1.60;;
2650;SDS011;1335;48.180;16.342;2022-08-01T14:31:42;4.00;;;1.80;;
2650;SDS011;1335;48.180;16.342;2022-08-01T14:34:11;2.37;;;1.67;;
2650;SDS011;1335;48.180;16.342;2022-08-01T14:36:42;2.63;;;2.30;;
2650;SDS011;1335;48.180;16.342;2022-08-01T14:39:09;4.53;;;1.80;;
2650;SDS011;1335;48.180;16.342;2022-08-01T14:41:36;3.43;;;2.13;;
2650;SDS011;1335;48.180;16.342;2022-08-01T14:44:03;3.90;;;1.90;;
2650;SDS011;1335;48.180;16.342;2022-08-01T14:46:30;2.00;;;1.90;;
2650;SDS011;1335;48.180;16.342;2022-08-01T14:48:58;3.40;;;1.70;;
2650;SDS011;1335;48.180;16.342;2022-08-01T14:51:26;1.80;;;1.70;;
2650;SDS011;1335;48.180;16.342;2022-08-01T14:53:58;1.83;;;1.60;;
2650;SDS011;1335;48.180;16.342;2022-08-01T14:56:25;2.33;;;1.33;;
2650;SDS011;1335;48.180;16.342;2022-08-01T14:58:52;2.70;;;1.40;;
2650;SDS011;1335;48.180;16.342;2022-08-01T15:01:20;3.33;;;2.20;;
2650;SDS011;1335;48.180;16.342;2022-08-01T15:03:47;2.93;;;1.97;;
2650;SDS011;1335;48.180;16.342;2022-08-01T15:06:15;1.60;;;1.50;;
2650;SDS011;1335;48.180;16.342;2022-08-01T15:08:44;2.00;;;1.80;;
2650;SDS011;1335;48.180;16.342;2022-08-01T15:11:13;1.77;;;1.67;;
2650;SDS011;1335;48.180;16.342;2022-08-01T15:13:43;2.20;;;1.70;;
2650;SDS011;1335;48.180;16.342;2022-08-01T15:16:10;2.23;;;1.80;;
2650;SDS011;1335;48.180;16.342;2022-08-01T15:18:37;2.60;;;1.83;;
2650;SDS011;1335;48.180;16.342;2022-08-01T15:21:07;2.13;;;1.93;;
2650;SDS011;1335;48.180;16.342;2022-08-01T15:23:34;2.63;;;2.43;;
2650;SDS011;1335;48.180;16.342;2022-08-01T15:26:03;3.47;;;2.30;;